Bay City, Michigan
Current Conditions -  °F | °C
As of 8:53 AM on Monday 20 Oct 2014 (Local Time) from KMBS Reporting Station
Overcast Overcast  
Wind Chill: 50°   Ceiling: 1600
Heat Index: 50°   Visibility: 10mi
Dew Point: 45°   Wind: 10mph
Humidity: 83%   Direction: 200°SSW
Pressure: 29.81"   Gusts: NA
Location:  43.6°N, 83.88°W
Report Text: KMBS 201253Z 20009KT 10SM OVC016 10/07 A2981 RMK AO2 SLP097 T01000072
Loading
Personal Weather Stations






























Interactive Weather Map New forecast layout! Learn more

10-Day Weather Forecast

Advertisements
Track Severe Weather on mobile